sensor_id;sensor_type;location;lat;lon;timestamp;temperature;humidity
1277;DHT22;631;51.024;13.826;2022-08-19T00:00:25;22.60;99.90
1277;DHT22;631;51.024;13.826;2022-08-19T00:02:52;22.60;99.90
1277;DHT22;631;51.024;13.826;2022-08-19T00:05:19;22.60;99.90
1277;DHT22;631;51.024;13.826;2022-08-19T00:07:45;22.60;99.90
1277;DHT22;631;51.024;13.826;2022-08-19T00:10:13;22.60;99.90
1277;DHT22;631;51.024;13.826;2022-08-19T00:12:38;22.60;99.90
1277;DHT22;631;51.024;13.826;2022-08-19T00:15:07;22.60;99.90
1277;DHT22;631;51.024;13.826;2022-08-19T00:17:39;22.50;99.90
1277;DHT22;631;51.024;13.826;2022-08-19T00:20:05;22.50;99.90
1277;DHT22;631;51.024;13.826;2022-08-19T00:22:31;22.50;99.90
1277;DHT22;631;51.024;13.826;2022-08-19T00:24:58;22.50;99.90
1277;DHT22;631;51.024;13.826;2022-08-19T00:27:24;22.40;99.90
1277;DHT22;631;51.024;13.826;2022-08-19T00:29:50;22.50;99.90
1277;DHT22;631;51.024;13.826;2022-08-19T00:32:16;22.50;99.90
1277;DHT22;631;51.024;13.826;2022-08-19T00:34:42;22.50;99.90
1277;DHT22;631;51.024;13.826;2022-08-19T00:37:08;22.50;99.90
1277;DHT22;631;51.024;13.826;2022-08-19T00:39:34;22.40;99.90
1277;DHT22;631;51.024;13.826;2022-08-19T00:42:00;22.40;99.90
1277;DHT22;631;51.024;13.826;2022-08-19T00:44:28;22.40;99.90
1277;DHT22;631;51.024;13.826;2022-08-19T00:46:55;22.30;99.90
1277;DHT22;631;51.024;13.826;2022-08-19T00:49:43;22.30;99.90
1277;DHT22;631;51.024;13.826;2022-08-19T00:52:19;22.30;99.90
1277;DHT22;631;51.024;13.826;2022-08-19T00:54:47;22.20;99.90
1277;DHT22;631;51.024;13.826;2022-08-19T00:57:17;22.20;99.90
1277;DHT22;631;51.024;13.826;2022-08-19T00:59:47;22.20;99.90
1277;DHT22;631;51.024;13.826;2022-08-19T01:02:16;22.10;99.90
1277;DHT22;631;51.024;13.826;2022-08-19T01:04:42;22.20;99.90
1277;DHT22;631;51.024;13.826;2022-08-19T01:07:08;22.20;99.90
1277;DHT22;631;51.024;13.826;2022-08-19T01:09:33;22.20;99.90
1277;DHT22;631;51.024;13.826;2022-08-19T01:12:00;22.20;99.90
1277;DHT22;631;51.024;13.826;2022-08-19T01:14:26;22.10;99.90
1277;DHT22;631;51.024;13.826;2022-08-19T01:16:52;22.10;99.90
1277;DHT22;631;51.024;13.826;2022-08-19T01:19:29;22.10;99.90
1277;DHT22;631;51.024;13.826;2022-08-19T01:22:04;22.10;99.90
1277;DHT22;631;51.024;13.826;2022-08-19T01:24:31;22.00;99.90
1277;DHT22;631;51.024;13.826;2022-08-19T01:26:57;22.00;99.90
1277;DHT22;631;51.024;13.826;2022-08-19T01:29:23;22.00;99.90
1277;DHT22;631;51.024;13.826;2022-08-19T01:31:49;22.00;99.90
1277;DHT22;631;51.024;13.826;2022-08-19T01:34:18;22.10;99.90
1277;DHT22;631;51.024;13.826;2022-08-19T01:36:45;22.10;99.90
1277;DHT22;631;51.024;13.826;2022-08-19T01:39:14;22.10;99.90
1277;DHT22;631;51.024;13.826;2022-08-19T01:41:40;22.10;99.90
1277;DHT22;631;51.024;13.826;2022-08-19T01:44:07;22.10;99.90
1277;DHT22;631;51.024;13.826;2022-08-19T01:46:33;22.10;99.90
1277;DHT22;631;51.024;13.826;2022-08-19T01:48:59;22.10;99.90
1277;DHT22;631;51.024;13.826;2022-08-19T01:51:26;22.10;99.90
1277;DHT22;631;51.024;13.826;2022-08-19T01:53:52;22.10;99.90
1277;DHT22;631;51.024;13.826;2022-08-19T01:56:18;22.00;99.90
1277;DHT22;631;51.024;13.826;2022-08-19T01:58:49;22.00;99.90
1277;DHT22;631;51.024;13.826;2022-08-19T02:01:17;22.00;99.90
1277;DHT22;631;51.024;13.826;2022-08-19T02:03:42;22.00;99.90
1277;DHT22;631;51.024;13.826;2022-08-19T02:06:08;22.00;99.90
1277;DHT22;631;51.024;13.826;2022-08-19T02:08:37;22.00;99.90
1277;DHT22;631;51.024;13.826;2022-08-19T02:11:04;22.00;99.90
1277;DHT22;631;51.024;13.826;2022-08-19T02:13:30;22.00;99.90
1277;DHT22;631;51.024;13.826;2022-08-19T02:15:56;22.00;99.90
1277;DHT22;631;51.024;13.826;2022-08-19T02:18:21;22.00;99.90
1277;DHT22;631;51.024;13.826;2022-08-19T02:20:47;21.90;99.90
1277;DHT22;631;51.024;13.826;2022-08-19T02:23:14;22.00;99.90
1277;DHT22;631;51.024;13.826;2022-08-19T02:25:41;22.00;99.90
1277;DHT22;631;51.024;13.826;2022-08-19T02:28:07;22.10;99.90
1277;DHT22;631;51.024;13.826;2022-08-19T02:30:32;22.00;99.90
1277;DHT22;631;51.024;13.826;2022-08-19T02:32:58;22.20;99.90
1277;DHT22;631;51.024;13.826;2022-08-19T02:35:24;22.10;99.90
1277;DHT22;631;51.024;13.826;2022-08-19T02:37:50;22.10;99.90
1277;DHT22;631;51.024;13.826;2022-08-19T02:40:35;22.10;99.90
1277;DHT22;631;51.024;13.826;2022-08-19T02:43:05;22.10;99.90
1277;DHT22;631;51.024;13.826;2022-08-19T02:45:38;22.00;99.90
1277;DHT22;631;51.024;13.826;2022-08-19T02:48:04;22.10;99.90
1277;DHT22;631;51.024;13.826;2022-08-19T02:50:31;22.10;99.90
1277;DHT22;631;51.024;13.826;2022-08-19T02:52:56;22.00;99.90
1277;DHT22;631;51.024;13.826;2022-08-19T02:55:22;22.00;99.90
1277;DHT22;631;51.024;13.826;2022-08-19T02:57:48;22.10;99.90
1277;DHT22;631;51.024;13.826;2022-08-19T03:00:14;22.00;99.90
1277;DHT22;631;51.024;13.826;2022-08-19T03:02:40;22.00;99.90
1277;DHT22;631;51.024;13.826;2022-08-19T03:05:08;22.00;99.90
1277;DHT22;631;51.024;13.826;2022-08-19T03:07:35;22.00;99.90
1277;DHT22;631;51.024;13.826;2022-08-19T03:10:00;22.00;99.90
1277;DHT22;631;51.024;13.826;2022-08-19T03:12:26;22.00;99.90
1277;DHT22;631;51.024;13.826;2022-08-19T03:14:52;22.00;99.90
1277;DHT22;631;51.024;13.826;2022-08-19T03:17:18;21.90;99.90
1277;DHT22;631;51.024;13.826;2022-08-19T03:19:44;21.90;99.90
1277;DHT22;631;51.024;13.826;2022-08-19T03:22:10;22.00;99.90
1277;DHT22;631;51.024;13.826;2022-08-19T03:24:36;22.10;99.90
1277;DHT22;631;51.024;13.826;2022-08-19T03:27:02;22.00;99.90
1277;DHT22;631;51.024;13.826;2022-08-19T03:29:31;21.90;99.90
1277;DHT22;631;51.024;13.826;2022-08-19T03:32:02;21.90;99.90
1277;DHT22;631;51.024;13.826;2022-08-19T03:34:30;21.90;99.90
1277;DHT22;631;51.024;13.826;2022-08-19T03:36:58;22.00;99.90
1277;DHT22;631;51.024;13.826;2022-08-19T03:39:26;22.00;99.90
1277;DHT22;631;51.024;13.826;2022-08-19T03:41:53;22.00;99.90
1277;DHT22;631;51.024;13.826;2022-08-19T03:44:22;21.80;99.90
1277;DHT22;631;51.024;13.826;2022-08-19T03:46:53;21.90;99.90
1277;DHT22;631;51.024;13.826;2022-08-19T03:49:22;21.90;99.90
1277;DHT22;631;51.024;13.826;2022-08-19T03:51:49;21.90;99.90
1277;DHT22;631;51.024;13.826;2022-08-19T03:54:19;21.90;99.90
1277;DHT22;631;51.024;13.826;2022-08-19T03:56:46;22.00;99.90
1277;DHT22;631;51.024;13.826;2022-08-19T03:59:15;22.00;99.90
1277;DHT22;631;51.024;13.826;2022-08-19T04:01:41;21.90;99.90
1277;DHT22;631;51.024;13.826;2022-08-19T04:04:07;21.90;99.90
1277;DHT22;631;51.024;13.826;2022-08-19T04:06:35;22.00;99.90
1277;DHT22;631;51.024;13.826;2022-08-19T04:09:03;22.00;99.90
1277;DHT22;631;51.024;13.826;2022-08-19T04:11:34;22.00;99.90
1277;DHT22;631;51.024;13.826;2022-08-19T04:14:00;21.90;99.90
1277;DHT22;631;51.024;13.826;2022-08-19T04:16:27;21.90;99.90
1277;DHT22;631;51.024;13.826;2022-08-19T04:18:54;21.90;99.90
1277;DHT22;631;51.024;13.826;2022-08-19T04:21:24;21.90;99.90
1277;DHT22;631;51.024;13.826;2022-08-19T04:23:50;21.90;99.90
1277;DHT22;631;51.024;13.826;2022-08-19T04:26:17;21.90;99.90
1277;DHT22;631;51.024;13.826;2022-08-19T04:28:44;21.90;99.90
1277;DHT22;631;51.024;13.826;2022-08-19T04:31:15;21.90;99.90
1277;DHT22;631;51.024;13.826;2022-08-19T04:33:41;22.00;99.90
1277;DHT22;631;51.024;13.826;2022-08-19T04:36:07;22.00;99.90
1277;DHT22;631;51.024;13.826;2022-08-19T04:38:33;22.00;99.90
1277;DHT22;631;51.024;13.826;2022-08-19T04:40:59;21.90;99.90
1277;DHT22;631;51.024;13.826;2022-08-19T04:43:45;22.00;99.90
1277;DHT22;631;51.024;13.826;2022-08-19T04:46:14;22.00;99.90
1277;DHT22;631;51.024;13.826;2022-08-19T04:48:40;21.90;99.90
1277;DHT22;631;51.024;13.826;2022-08-19T04:51:09;21.80;99.90
1277;DHT22;631;51.024;13.826;2022-08-19T04:53:37;21.90;99.90
1277;DHT22;631;51.024;13.826;2022-08-19T04:56:12;21.80;99.90
1277;DHT22;631;51.024;13.826;2022-08-19T04:58:40;21.80;99.90
1277;DHT22;631;51.024;13.826;2022-08-19T05:01:09;21.70;99.90
1277;DHT22;631;51.024;13.826;2022-08-19T05:03:36;21.70;99.90
1277;DHT22;631;51.024;13.826;2022-08-19T05:06:10;21.80;99.90
1277;DHT22;631;51.024;13.826;2022-08-19T05:08:38;21.80;99.90
1277;DHT22;631;51.024;13.826;2022-08-19T05:11:41;21.80;99.90
1277;DHT22;631;51.024;13.826;2022-08-19T05:14:07;21.90;99.90
1277;DHT22;631;51.024;13.826;2022-08-19T05:16:34;21.90;99.90
1277;DHT22;631;51.024;13.826;2022-08-19T05:18:59;21.90;99.90
1277;DHT22;631;51.024;13.826;2022-08-19T05:21:44;22.00;99.90
1277;DHT22;631;51.024;13.826;2022-08-19T05:24:29;21.90;99.90
1277;DHT22;631;51.024;13.826;2022-08-19T05:26:55;21.80;99.90
1277;DHT22;631;51.024;13.826;2022-08-19T05:29:26;21.80;99.90
1277;DHT22;631;51.024;13.826;2022-08-19T05:31:53;21.90;99.90
1277;DHT22;631;51.024;13.826;2022-08-19T05:34:21;21.80;99.90
1277;DHT22;631;51.024;13.826;2022-08-19T05:36:49;21.90;99.90
1277;DHT22;631;51.024;13.826;2022-08-19T05:39:18;21.90;99.90
1277;DHT22;631;51.024;13.826;2022-08-19T05:41:46;21.80;99.90
1277;DHT22;631;51.024;13.826;2022-08-19T05:44:13;21.70;99.90
1277;DHT22;631;51.024;13.826;2022-08-19T05:46:39;21.70;99.90
1277;DHT22;631;51.024;13.826;2022-08-19T05:49:05;21.60;99.90
1277;DHT22;631;51.024;13.826;2022-08-19T05:51:33;21.70;99.90
1277;DHT22;631;51.024;13.826;2022-08-19T05:54:00;21.60;99.90
1277;DHT22;631;51.024;13.826;2022-08-19T05:56:25;21.60;99.90
1277;DHT22;631;51.024;13.826;2022-08-19T05:58:51;21.60;99.90
1277;DHT22;631;51.024;13.826;2022-08-19T06:01:20;21.60;99.90
1277;DHT22;631;51.024;13.826;2022-08-19T06:03:46;21.60;99.90
1277;DHT22;631;51.024;13.826;2022-08-19T06:06:14;21.60;99.90
1277;DHT22;631;51.024;13.826;2022-08-19T06:08:40;21.60;99.90
1277;DHT22;631;51.024;13.826;2022-08-19T06:11:32;21.50;99.90
1277;DHT22;631;51.024;13.826;2022-08-19T06:14:01;21.40;99.90
1277;DHT22;631;51.024;13.826;2022-08-19T06:16:27;21.30;99.90
1277;DHT22;631;51.024;13.826;2022-08-19T06:18:54;21.20;99.90
1277;DHT22;631;51.024;13.826;2022-08-19T06:21:24;21.20;99.90
1277;DHT22;631;51.024;13.826;2022-08-19T06:23:51;21.10;99.90
1277;DHT22;631;51.024;13.826;2022-08-19T06:26:19;21.10;99.90
1277;DHT22;631;51.024;13.826;2022-08-19T06:28:46;21.10;99.90
1277;DHT22;631;51.024;13.826;2022-08-19T06:31:17;21.10;99.90
1277;DHT22;631;51.024;13.826;2022-08-19T06:33:43;21.00;99.90
1277;DHT22;631;51.024;13.826;2022-08-19T06:36:18;21.00;99.90
1277;DHT22;631;51.024;13.826;2022-08-19T06:38:44;21.10;99.90
1277;DHT22;631;51.024;13.826;2022-08-19T06:41:09;21.10;99.90
1277;DHT22;631;51.024;13.826;2022-08-19T06:43:35;21.10;99.90
1277;DHT22;631;51.024;13.826;2022-08-19T06:46:01;21.10;99.90
1277;DHT22;631;51.024;13.826;2022-08-19T06:48:29;21.10;99.90
1277;DHT22;631;51.024;13.826;2022-08-19T06:50:54;21.10;99.90
1277;DHT22;631;51.024;13.826;2022-08-19T06:53:21;21.20;99.90
1277;DHT22;631;51.024;13.826;2022-08-19T06:55:47;21.20;99.90
1277;DHT22;631;51.024;13.826;2022-08-19T06:58:12;21.20;99.90
1277;DHT22;631;51.024;13.826;2022-08-19T07:00:39;21.30;99.90
1277;DHT22;631;51.024;13.826;2022-08-19T07:03:05;21.30;99.90
1277;DHT22;631;51.024;13.826;2022-08-19T07:05:30;21.30;99.90
1277;DHT22;631;51.024;13.826;2022-08-19T07:07:56;21.30;99.90
1277;DHT22;631;51.024;13.826;2022-08-19T07:10:22;21.30;99.90
1277;DHT22;631;51.024;13.826;2022-08-19T07:12:48;21.30;99.90
1277;DHT22;631;51.024;13.826;2022-08-19T07:15:15;21.20;99.90
1277;DHT22;631;51.024;13.826;2022-08-19T07:17:41;21.10;99.90
1277;DHT22;631;51.024;13.826;2022-08-19T07:20:09;21.20;99.90
1277;DHT22;631;51.024;13.826;2022-08-19T07:22:38;21.20;99.90
1277;DHT22;631;51.024;13.826;2022-08-19T07:25:07;21.30;99.90
1277;DHT22;631;51.024;13.826;2022-08-19T07:27:32;21.30;99.90
1277;DHT22;631;51.024;13.826;2022-08-19T07:29:59;21.30;99.90
1277;DHT22;631;51.024;13.826;2022-08-19T07:32:25;21.30;99.90
1277;DHT22;631;51.024;13.826;2022-08-19T07:34:52;21.30;99.90
1277;DHT22;631;51.024;13.826;2022-08-19T07:37:17;21.30;99.90
1277;DHT22;631;51.024;13.826;2022-08-19T07:39:43;21.30;99.90
1277;DHT22;631;51.024;13.826;2022-08-19T07:42:10;21.30;99.90
1277;DHT22;631;51.024;13.826;2022-08-19T07:44:36;21.30;99.90
1277;DHT22;631;51.024;13.826;2022-08-19T07:47:03;21.20;99.90
1277;DHT22;631;51.024;13.826;2022-08-19T07:49:29;21.00;99.90
1277;DHT22;631;51.024;13.826;2022-08-19T07:52:01;21.00;99.90
1277;DHT22;631;51.024;13.826;2022-08-19T07:54:30;21.00;99.90
1277;DHT22;631;51.024;13.826;2022-08-19T07:56:56;21.00;99.90
1277;DHT22;631;51.024;13.826;2022-08-19T07:59:23;20.90;99.90
1277;DHT22;631;51.024;13.826;2022-08-19T08:01:49;20.80;99.90
1277;DHT22;631;51.024;13.826;2022-08-19T08:04:16;20.80;99.90
1277;DHT22;631;51.024;13.826;2022-08-19T08:07:00;20.80;99.90
1277;DHT22;631;51.024;13.826;2022-08-19T08:09:45;20.80;99.90
1277;DHT22;631;51.024;13.826;2022-08-19T08:12:17;20.80;99.90
1277;DHT22;631;51.024;13.826;2022-08-19T08:14:52;20.80;99.90
1277;DHT22;631;51.024;13.826;2022-08-19T08:17:20;20.80;99.90
1277;DHT22;631;51.024;13.826;2022-08-19T08:19:46;20.80;99.90
1277;DHT22;631;51.024;13.826;2022-08-19T08:22:15;20.80;99.90
1277;DHT22;631;51.024;13.826;2022-08-19T08:25:05;20.80;99.90
1277;DHT22;631;51.024;13.826;2022-08-19T08:27:34;20.80;99.90
1277;DHT22;631;51.024;13.826;2022-08-19T08:30:00;20.80;99.90
1277;DHT22;631;51.024;13.826;2022-08-19T08:32:26;20.90;99.90
1277;DHT22;631;51.024;13.826;2022-08-19T08:34:52;20.90;99.90
1277;DHT22;631;51.024;13.826;2022-08-19T08:37:17;20.90;99.90
1277;DHT22;631;51.024;13.826;2022-08-19T08:39:43;20.90;99.90
1277;DHT22;631;51.024;13.826;2022-08-19T08:42:36;20.80;99.90
1277;DHT22;631;51.024;13.826;2022-08-19T08:45:16;20.90;99.90
1277;DHT22;631;51.024;13.826;2022-08-19T08:47:45;20.80;99.90
1277;DHT22;631;51.024;13.826;2022-08-19T08:50:19;20.80;99.90
1277;DHT22;631;51.024;13.826;2022-08-19T08:52:47;20.80;99.90
1277;DHT22;631;51.024;13.826;2022-08-19T08:55:18;20.80;99.90
1277;DHT22;631;51.024;13.826;2022-08-19T09:00:23;20.80;99.90
1277;DHT22;631;51.024;13.826;2022-08-19T09:02:50;20.80;99.90
1277;DHT22;631;51.024;13.826;2022-08-19T09:05:16;20.90;99.90
1277;DHT22;631;51.024;13.826;2022-08-19T09:07:57;21.00;99.90
1277;DHT22;631;51.024;13.826;2022-08-19T09:10:34;21.10;99.90
1277;DHT22;631;51.024;13.826;2022-08-19T09:15:45;21.40;99.90
1277;DHT22;631;51.024;13.826;2022-08-19T09:18:11;21.60;99.90
1277;DHT22;631;51.024;13.826;2022-08-19T09:20:37;21.70;99.90
1277;DHT22;631;51.024;13.826;2022-08-19T09:23:03;21.90;99.90
1277;DHT22;631;51.024;13.826;2022-08-19T09:25:29;22.10;99.90
1277;DHT22;631;51.024;13.826;2022-08-19T09:27:57;22.20;99.90
1277;DHT22;631;51.024;13.826;2022-08-19T09:30:26;22.30;99.90
1277;DHT22;631;51.024;13.826;2022-08-19T09:32:52;22.50;99.90
1277;DHT22;631;51.024;13.826;2022-08-19T09:35:19;22.70;99.90
1277;DHT22;631;51.024;13.826;2022-08-19T09:37:44;22.90;99.90
1277;DHT22;631;51.024;13.826;2022-08-19T09:40:11;23.10;99.90
1277;DHT22;631;51.024;13.826;2022-08-19T09:42:37;23.30;99.90
1277;DHT22;631;51.024;13.826;2022-08-19T09:45:03;23.50;99.90
1277;DHT22;631;51.024;13.826;2022-08-19T09:47:29;23.70;99.90
1277;DHT22;631;51.024;13.826;2022-08-19T09:49:54;24.00;99.90
1277;DHT22;631;51.024;13.826;2022-08-19T09:52:20;24.20;99.90
1277;DHT22;631;51.024;13.826;2022-08-19T09:54:46;24.30;99.90
1277;DHT22;631;51.024;13.826;2022-08-19T09:57:11;24.40;99.90
1277;DHT22;631;51.024;13.826;2022-08-19T09:59:39;24.60;99.90
1277;DHT22;631;51.024;13.826;2022-08-19T10:02:05;24.80;99.90
1277;DHT22;631;51.024;13.826;2022-08-19T10:04:31;24.90;99.90
1277;DHT22;631;51.024;13.826;2022-08-19T10:07:15;25.10;99.90
1277;DHT22;631;51.024;13.826;2022-08-19T10:09:41;25.10;99.90
1277;DHT22;631;51.024;13.826;2022-08-19T10:12:07;25.10;99.90
1277;DHT22;631;51.024;13.826;2022-08-19T10:14:34;25.20;99.90
1277;DHT22;631;51.024;13.826;2022-08-19T10:17:00;25.10;99.90
1277;DHT22;631;51.024;13.826;2022-08-19T10:19:27;25.10;99.90
1277;DHT22;631;51.024;13.826;2022-08-19T10:21:58;25.10;99.90
1277;DHT22;631;51.024;13.826;2022-08-19T10:24:23;25.10;99.90
1277;DHT22;631;51.024;13.826;2022-08-19T10:26:51;24.70;99.90
1277;DHT22;631;51.024;13.826;2022-08-19T10:29:17;24.60;99.90
1277;DHT22;631;51.024;13.826;2022-08-19T10:31:42;24.60;99.90
1277;DHT22;631;51.024;13.826;2022-08-19T10:34:08;24.80;99.90
1277;DHT22;631;51.024;13.826;2022-08-19T10:36:36;24.90;99.90
1277;DHT22;631;51.024;13.826;2022-08-19T10:39:05;25.20;99.90
1277;DHT22;631;51.024;13.826;2022-08-19T10:41:33;25.40;99.90
1277;DHT22;631;51.024;13.826;2022-08-19T10:44:04;25.70;99.90
1277;DHT22;631;51.024;13.826;2022-08-19T10:46:31;26.00;99.90
1277;DHT22;631;51.024;13.826;2022-08-19T10:48:59;26.30;99.90
1277;DHT22;631;51.024;13.826;2022-08-19T10:51:24;26.80;99.90
1277;DHT22;631;51.024;13.826;2022-08-19T10:54:09;27.60;99.90
1277;DHT22;631;51.024;13.826;2022-08-19T10:56:36;28.70;99.90
1277;DHT22;631;51.024;13.826;2022-08-19T10:59:19;29.30;99.90
1277;DHT22;631;51.024;13.826;2022-08-19T11:01:46;30.20;96.00
1277;DHT22;631;51.024;13.826;2022-08-19T11:04:12;30.60;93.10
1277;DHT22;631;51.024;13.826;2022-08-19T11:06:40;30.00;93.10
1277;DHT22;631;51.024;13.826;2022-08-19T11:09:07;29.30;93.90
1277;DHT22;631;51.024;13.826;2022-08-19T11:11:34;28.60;95.60
1277;DHT22;631;51.024;13.826;2022-08-19T11:14:09;28.00;98.00
1277;DHT22;631;51.024;13.826;2022-08-19T11:16:35;27.70;99.30
1277;DHT22;631;51.024;13.826;2022-08-19T11:19:01;27.20;99.90
1277;DHT22;631;51.024;13.826;2022-08-19T11:21:33;26.90;99.90
1277;DHT22;631;51.024;13.826;2022-08-19T11:24:10;26.80;99.90
1277;DHT22;631;51.024;13.826;2022-08-19T11:26:37;26.70;99.90
1277;DHT22;631;51.024;13.826;2022-08-19T11:29:04;26.60;99.90
1277;DHT22;631;51.024;13.826;2022-08-19T11:31:32;26.60;99.90
1277;DHT22;631;51.024;13.826;2022-08-19T11:34:00;26.70;99.90
1277;DHT22;631;51.024;13.826;2022-08-19T11:36:27;26.70;99.90
1277;DHT22;631;51.024;13.826;2022-08-19T11:38:53;26.70;99.90
1277;DHT22;631;51.024;13.826;2022-08-19T11:41:20;26.40;99.90
1277;DHT22;631;51.024;13.826;2022-08-19T11:43:48;26.30;99.90
1277;DHT22;631;51.024;13.826;2022-08-19T11:46:15;26.30;99.90
1277;DHT22;631;51.024;13.826;2022-08-19T11:48:41;26.20;99.90
1277;DHT22;631;51.024;13.826;2022-08-19T11:51:09;26.00;99.90
1277;DHT22;631;51.024;13.826;2022-08-19T11:53:36;25.80;99.90
1277;DHT22;631;51.024;13.826;2022-08-19T11:56:02;25.60;99.90
1277;DHT22;631;51.024;13.826;2022-08-19T11:58:29;25.50;99.90
1277;DHT22;631;51.024;13.826;2022-08-19T12:00:55;25.30;99.90
1277;DHT22;631;51.024;13.826;2022-08-19T12:03:21;25.20;99.90
1277;DHT22;631;51.024;13.826;2022-08-19T12:05:47;25.10;99.90
1277;DHT22;631;51.024;13.826;2022-08-19T12:08:13;25.00;99.90
1277;DHT22;631;51.024;13.826;2022-08-19T12:10:41;24.90;99.90
1277;DHT22;631;51.024;13.826;2022-08-19T12:13:11;24.90;99.90
1277;DHT22;631;51.024;13.826;2022-08-19T12:15:40;24.90;99.90
1277;DHT22;631;51.024;13.826;2022-08-19T12:18:07;24.90;99.90
1277;DHT22;631;51.024;13.826;2022-08-19T12:20:38;24.90;99.90
1277;DHT22;631;51.024;13.826;2022-08-19T12:23:06;24.90;99.90
1277;DHT22;631;51.024;13.826;2022-08-19T12:25:32;24.90;99.90
1277;DHT22;631;51.024;13.826;2022-08-19T12:27:58;24.80;99.90
1277;DHT22;631;51.024;13.826;2022-08-19T12:30:24;24.90;99.90
1277;DHT22;631;51.024;13.826;2022-08-19T12:32:50;24.70;99.90
1277;DHT22;631;51.024;13.826;2022-08-19T12:35:16;24.60;99.90
1277;DHT22;631;51.024;13.826;2022-08-19T12:37:46;24.50;99.90
1277;DHT22;631;51.024;13.826;2022-08-19T12:40:15;24.50;99.90
1277;DHT22;631;51.024;13.826;2022-08-19T12:42:41;24.40;99.90
1277;DHT22;631;51.024;13.826;2022-08-19T12:45:08;24.30;99.90
1277;DHT22;631;51.024;13.826;2022-08-19T12:47:35;24.10;99.90
1277;DHT22;631;51.024;13.826;2022-08-19T12:50:01;24.00;99.90
1277;DHT22;631;51.024;13.826;2022-08-19T12:52:27;23.90;99.90
1277;DHT22;631;51.024;13.826;2022-08-19T12:54:55;23.80;99.90
1277;DHT22;631;51.024;13.826;2022-08-19T12:57:23;23.80;99.90
1277;DHT22;631;51.024;13.826;2022-08-19T12:59:52;23.80;99.90
1277;DHT22;631;51.024;13.826;2022-08-19T13:02:22;23.80;99.90
1277;DHT22;631;51.024;13.826;2022-08-19T13:04:47;23.80;99.90
1277;DHT22;631;51.024;13.826;2022-08-19T13:07:13;23.80;99.90
1277;DHT22;631;51.024;13.826;2022-08-19T13:09:39;23.90;99.90
1277;DHT22;631;51.024;13.826;2022-08-19T13:12:08;24.00;99.90
1277;DHT22;631;51.024;13.826;2022-08-19T13:14:38;24.10;99.90
1277;DHT22;631;51.024;13.826;2022-08-19T13:17:06;24.30;99.90
1277;DHT22;631;51.024;13.826;2022-08-19T13:19:31;24.30;99.90
1277;DHT22;631;51.024;13.826;2022-08-19T13:21:57;24.40;99.90
1277;DHT22;631;51.024;13.826;2022-08-19T13:24:24;24.60;99.90
1277;DHT22;631;51.024;13.826;2022-08-19T13:26:49;24.60;99.90
1277;DHT22;631;51.024;13.826;2022-08-19T13:29:15;24.70;99.90
1277;DHT22;631;51.024;13.826;2022-08-19T13:31:59;24.60;99.90
1277;DHT22;631;51.024;13.826;2022-08-19T13:34:43;24.60;99.90
1277;DHT22;631;51.024;13.826;2022-08-19T13:37:11;24.60;99.90
1277;DHT22;631;51.024;13.826;2022-08-19T13:39:37;24.70;99.90
1277;DHT22;631;51.024;13.826;2022-08-19T13:42:03;24.80;99.90
1277;DHT22;631;51.024;13.826;2022-08-19T13:44:30;24.80;99.90
1277;DHT22;631;51.024;13.826;2022-08-19T13:47:01;24.80;99.90
1277;DHT22;631;51.024;13.826;2022-08-19T13:49:29;24.70;99.90
1277;DHT22;631;51.024;13.826;2022-08-19T13:51:56;24.70;99.90
1277;DHT22;631;51.024;13.826;2022-08-19T13:54:22;24.70;99.90
1277;DHT22;631;51.024;13.826;2022-08-19T13:56:48;24.60;99.90
1277;DHT22;631;51.024;13.826;2022-08-19T13:59:14;24.50;99.90
1277;DHT22;631;51.024;13.826;2022-08-19T14:01:40;24.50;99.90
1277;DHT22;631;51.024;13.826;2022-08-19T14:04:08;24.50;99.90
1277;DHT22;631;51.024;13.826;2022-08-19T14:06:34;24.50;99.90
1277;DHT22;631;51.024;13.826;2022-08-19T14:09:00;24.40;99.90
1277;DHT22;631;51.024;13.826;2022-08-19T14:11:27;24.40;99.90
1277;DHT22;631;51.024;13.826;2022-08-19T14:13:53;24.40;99.90
1277;DHT22;631;51.024;13.826;2022-08-19T14:16:19;24.50;99.90
1277;DHT22;631;51.024;13.826;2022-08-19T14:18:44;24.50;99.90
1277;DHT22;631;51.024;13.826;2022-08-19T14:21:23;24.50;99.90
1277;DHT22;631;51.024;13.826;2022-08-19T14:23:50;24.40;99.90
1277;DHT22;631;51.024;13.826;2022-08-19T14:26:18;24.40;99.90
1277;DHT22;631;51.024;13.826;2022-08-19T14:28:44;24.50;99.90
1277;DHT22;631;51.024;13.826;2022-08-19T14:31:12;24.30;99.90
1277;DHT22;631;51.024;13.826;2022-08-19T14:33:38;24.20;99.90
1277;DHT22;631;51.024;13.826;2022-08-19T14:36:04;24.20;99.90
1277;DHT22;631;51.024;13.826;2022-08-19T14:38:30;24.20;99.90
1277;DHT22;631;51.024;13.826;2022-08-19T14:41:13;24.00;99.90
1277;DHT22;631;51.024;13.826;2022-08-19T14:43:43;23.80;99.90
1277;DHT22;631;51.024;13.826;2022-08-19T14:46:12;23.60;99.90
1277;DHT22;631;51.024;13.826;2022-08-19T14:48:38;23.60;99.90
1277;DHT22;631;51.024;13.826;2022-08-19T14:51:05;23.70;99.90
1277;DHT22;631;51.024;13.826;2022-08-19T14:53:31;23.60;99.90
1277;DHT22;631;51.024;13.826;2022-08-19T14:55:59;23.50;99.90
1277;DHT22;631;51.024;13.826;2022-08-19T14:58:25;23.40;99.90
1277;DHT22;631;51.024;13.826;2022-08-19T15:00:50;23.40;99.90
1277;DHT22;631;51.024;13.826;2022-08-19T15:03:16;23.50;99.90
1277;DHT22;631;51.024;13.826;2022-08-19T15:05:41;23.30;99.90
1277;DHT22;631;51.024;13.826;2022-08-19T15:08:07;23.30;99.90
1277;DHT22;631;51.024;13.826;2022-08-19T15:10:33;23.30;99.90
1277;DHT22;631;51.024;13.826;2022-08-19T15:12:58;23.20;99.90
1277;DHT22;631;51.024;13.826;2022-08-19T15:15:25;23.10;99.90
1277;DHT22;631;51.024;13.826;2022-08-19T15:17:50;23.10;99.90
1277;DHT22;631;51.024;13.826;2022-08-19T15:20:19;23.10;99.90
1277;DHT22;631;51.024;13.826;2022-08-19T15:22:46;23.20;99.90
1277;DHT22;631;51.024;13.826;2022-08-19T15:25:14;23.00;99.90
1277;DHT22;631;51.024;13.826;2022-08-19T15:27:40;23.00;99.90
1277;DHT22;631;51.024;13.826;2022-08-19T15:30:09;23.00;99.90
1277;DHT22;631;51.024;13.826;2022-08-19T15:32:37;23.00;99.90
1277;DHT22;631;51.024;13.826;2022-08-19T15:35:03;22.90;99.90
1277;DHT22;631;51.024;13.826;2022-08-19T15:37:30;22.90;99.90
1277;DHT22;631;51.024;13.826;2022-08-19T15:39:56;22.90;99.90
1277;DHT22;631;51.024;13.826;2022-08-19T15:42:21;22.80;99.90
1277;DHT22;631;51.024;13.826;2022-08-19T15:44:47;22.80;99.90
1277;DHT22;631;51.024;13.826;2022-08-19T15:47:13;22.80;99.90
1277;DHT22;631;51.024;13.826;2022-08-19T15:49:39;22.80;99.90
1277;DHT22;631;51.024;13.826;2022-08-19T15:52:05;22.90;99.90
1277;DHT22;631;51.024;13.826;2022-08-19T15:54:32;23.00;99.90
1277;DHT22;631;51.024;13.826;2022-08-19T15:56:58;23.20;99.90
1277;DHT22;631;51.024;13.826;2022-08-19T15:59:43;23.20;99.90
1277;DHT22;631;51.024;13.826;2022-08-19T16:02:27;23.20;99.90
1277;DHT22;631;51.024;13.826;2022-08-19T16:05:16;23.20;99.90
1277;DHT22;631;51.024;13.826;2022-08-19T16:08:00;23.20;99.90
1277;DHT22;631;51.024;13.826;2022-08-19T16:10:25;23.20;99.90
1277;DHT22;631;51.024;13.826;2022-08-19T16:12:51;23.30;99.90